Belleair Shores, Florida
Current Conditions -  °F | °C
As of 12:15 PM on Friday 24 Oct 2014 (Local Time) from KCLW Reporting Station
Scattered Clouds Scattered Clouds  
Wind Chill: 73°   Ceiling: Unl
Heat Index: 73°   Visibility: 10mi
Dew Point: 55°   Wind: 9mph
Humidity: 53%   Direction: 40°NE
Pressure: 30"   Gusts: NA
Location:  27.9235°N, 82.8418°W
Report Text: KCLW 241615Z AUTO 04008KT 350V050 10SM SCT039 23/13 A3000 RMK AO2
Loading
Personal Weather Stations






























Interactive Weather Map
Tropical Storm Tracking
New forecast layout! Learn more

10-Day Weather Forecast

Advertisements
Track Severe Weather on mobile